Time;durP1;ratioP1;P1;durP2;ratioP2;P2;SDS_P1;SDS_P2;PMS_P1;PMS_P2;Temp;Humidity;BMP_temperature;BMP_pressure;BME280_temperature;BME280_humidity;BME280_pressure;Samples;Min_cycle;Max_cycle;Signal;HPM_P1;HPM_P2
2023/05/14 00:01:16;;;;;;;25.90;19.02;;;12.70;99.90;;;;;;4592367;19;20058;-22
2023/05/14 00:02:48;;;;;;;27.27;19.27;;;12.70;99.90;;;;;;4592115;19;20472;-22
2023/05/14 00:04:20;;;;;;;23.63;18.23;;;12.70;99.90;;;;;;4591747;19;20449;-22
2023/05/14 00:05:51;;;;;;;28.35;21.20;;;12.60;99.90;;;;;;4592196;19;20462;-24
2023/05/14 00:07:29;;;;;;;27.27;20.98;;;12.60;99.90;;;;;;4592306;19;20014;-22
2023/05/14 00:09:03;;;;;;;27.63;20.23;;;12.60;99.90;;;;;;4590547;19;20090;-22
2023/05/14 00:10:38;;;;;;;26.27;19.57;;;12.60;99.90;;;;;;4591348;19;21063;-22
2023/05/14 00:12:10;;;;;;;27.07;19.60;;;12.60;99.90;;;;;;4591025;19;20536;-22
2023/05/14 00:13:42;;;;;;;25.27;18.77;;;12.50;99.90;;;;;;4589312;19;21148;-22
2023/05/14 00:15:15;;;;;;;27.63;19.97;;;12.50;99.90;;;;;;4590075;19;20014;-22
2023/05/14 00:16:47;;;;;;;27.43;18.83;;;12.50;99.90;;;;;;4589473;19;20558;-22
2023/05/14 00:18:19;;;;;;;25.52;17.90;;;12.50;99.90;;;;;;4590658;19;20496;-22
2023/05/14 00:19:51;;;;;;;24.57;17.23;;;12.50;99.90;;;;;;4591097;19;20011;-22
2023/05/14 00:21:23;;;;;;;24.63;19.30;;;12.50;99.90;;;;;;4591148;19;20786;-23
2023/05/14 00:22:55;;;;;;;25.88;18.83;;;12.50;99.90;;;;;;4591714;19;20536;-22
2023/05/14 00:24:27;;;;;;;28.03;18.93;;;12.50;99.90;;;;;;4592099;19;20003;-21
2023/05/14 00:25:58;;;;;;;21.92;17.00;;;12.50;99.90;;;;;;4590117;19;20445;-22
2023/05/14 00:27:29;;;;;;;22.98;16.88;;;12.50;99.90;;;;;;4591006;19;20030;-22
2023/05/14 00:29:01;;;;;;;23.17;15.90;;;12.40;99.90;;;;;;4590222;19;20021;-22
2023/05/14 00:30:35;;;;;;;27.27;15.63;;;12.70;99.90;;;;;;4590749;19;20462;-23
2023/05/14 00:32:07;;;;;;;21.73;15.10;;;13.10;99.90;;;;;;4590823;19;20528;-22
2023/05/14 00:33:39;;;;;;;25.73;17.23;;;13.40;99.90;;;;;;4591814;19;20014;-22
2023/05/14 00:35:11;;;;;;;24.47;16.63;;;13.70;99.90;;;;;;4591561;19;20471;-23
2023/05/14 00:36:43;;;;;;;23.50;17.23;;;14.00;99.90;;;;;;4591596;19;20048;-23
2023/05/14 00:38:18;;;;;;;32.92;20.17;;;14.30;99.90;;;;;;4591395;19;20197;-24
2023/05/14 00:39:54;;;;;;;26.97;20.37;;;14.50;99.90;;;;;;4590477;19;20014;-23
2023/05/14 00:41:25;;;;;;;28.95;21.77;;;14.60;99.90;;;;;;4591292;19;20010;-25
2023/05/14 00:42:56;;;;;;;31.50;23.08;;;14.80;99.90;;;;;;4592128;19;19998;-26
2023/05/14 00:44:28;;;;;;;40.40;29.23;;;14.90;99.90;;;;;;4591077;19;20341;-23
2023/05/14 00:46:02;;;;;;;43.87;30.57;;;15.10;99.90;;;;;;4589261;19;20489;-25
2023/05/14 00:47:33;;;;;;;36.65;26.30;;;15.30;99.90;;;;;;4584471;19;20015;-22
2023/05/14 00:49:05;;;;;;;30.33;21.07;;;15.30;99.90;;;;;;4587967;19;20025;-23
2023/05/14 00:50:37;;;;;;;31.55;23.02;;;15.40;99.90;;;;;;4588221;19;20039;-24
2023/05/14 00:52:08;;;;;;;;;;;15.50;99.90;;;;;;4590161;19;20010;-25
2023/05/14 00:53:40;;;;;;;21.17;15.20;;;15.60;99.90;;;;;;4588539;19;19930;-22
2023/05/14 00:55:15;;;;;;;18.90;14.50;;;15.70;99.90;;;;;;4586613;19;20022;-23
2023/05/14 00:56:46;;;;;;;19.63;14.68;;;15.80;99.90;;;;;;4587674;19;20048;-23
2023/05/14 00:58:19;;;;;;;22.73;15.20;;;15.90;99.90;;;;;;4588717;19;20023;-22
2023/05/14 00:59:53;;;;;;;20.67;14.48;;;15.90;99.90;;;;;;4588239;19;20580;-29
2023/05/14 01:01:27;;;;;;;17.27;13.63;;;16.00;99.90;;;;;;4588537;19;20022;-24
2023/05/14 01:03:00;;;;;;;16.38;12.60;;;16.10;99.90;;;;;;4589135;19;20018;-24
2023/05/14 01:04:33;;;;;;;19.02;13.73;;;16.10;99.90;;;;;;4587877;19;20051;-22
2023/05/14 01:06:09;;;;;;;19.45;13.65;;;16.20;99.90;;;;;;4587539;19;20007;-23
2023/05/14 01:08:07;;;;;;;15.82;13.30;;;16.10;99.90;;;;;;4584735;19;20021;-23
2023/05/14 01:10:17;;;;;;;17.35;13.60;;;16.20;99.90;;;;;;4587043;19;20011;-22
2023/05/14 01:12:00;;;;;;;18.95;13.98;;;16.20;99.90;;;;;;4588757;19;20022;-23
2023/05/14 01:13:51;;;;;;;18.00;13.20;;;16.20;99.90;;;;;;4587923;19;20528;-29
2023/05/14 01:15:24;;;;;;;;;;;16.20;99.90;;;;;;4588856;19;20014;-22
2023/05/14 01:16:56;;;;;;;19.23;14.98;;;16.20;99.90;;;;;;4586878;19;19922;-23
2023/05/14 01:18:27;;;;;;;19.40;14.35;;;16.20;99.90;;;;;;4588939;19;20496;-27
2023/05/14 01:20:00;;;;;;;16.60;13.32;;;16.20;99.90;;;;;;4587348;19;20019;-22
2023/05/14 01:21:36;;;;;;;19.83;13.52;;;16.30;99.90;;;;;;4586998;19;20459;-23
2023/05/14 01:23:07;;;;;;;19.35;13.93;;;16.30;99.90;;;;;;4587293;19;20450;-30
2023/05/14 01:24:39;;;;;;;18.88;13.93;;;16.20;99.90;;;;;;4590157;19;20014;-24
2023/05/14 01:26:11;;;;;;;17.42;13.95;;;16.20;99.90;;;;;;4588145;19;20006;-23
2023/05/14 01:27:56;;;;;;;19.05;13.45;;;16.20;99.90;;;;;;4588184;19;20035;-22
2023/05/14 01:29:28;;;;;;;16.98;13.75;;;16.20;99.90;;;;;;4588197;19;20516;-23
2023/05/14 01:31:23;;;;;;;19.08;13.73;;;16.20;99.90;;;;;;4588568;19;20006;-26
2023/05/14 01:32:59;;;;;;;18.35;13.77;;;16.20;99.90;;;;;;4587993;19;20013;-24
2023/05/14 01:34:32;;;;;;;21.33;15.15;;;16.20;99.90;;;;;;4587903;19;20476;-26
2023/05/14 01:36:04;;;;;;;24.20;18.55;;;16.20;99.90;;;;;;4587024;19;20334;-23
2023/05/14 01:37:36;;;;;;;21.35;16.52;;;16.20;99.90;;;;;;4589465;19;20465;-26
2023/05/14 01:39:08;;;;;;;;;;;16.20;99.90;;;;;;4589994;19;20013;-23
2023/05/14 01:40:39;;;;;;;18.73;13.52;;;16.20;99.90;;;;;;4588741;19;20068;-24
2023/05/14 01:42:11;;;;;;;16.52;12.73;;;16.20;99.90;;;;;;4588901;19;20035;-24
2023/05/14 01:43:44;;;;;;;17.25;13.68;;;16.20;99.90;;;;;;4589339;19;20007;-26
2023/05/14 01:45:20;;;;;;;18.98;14.27;;;16.20;99.90;;;;;;4588730;19;20027;-23
2023/05/14 01:46:53;;;;;;;21.45;14.27;;;16.20;99.90;;;;;;4588838;19;20078;-26
2023/05/14 01:48:28;;;;;;;22.02;15.35;;;16.20;99.90;;;;;;4589653;19;20015;-25
2023/05/14 01:50:01;;;;;;;20.45;13.88;;;16.20;99.90;;;;;;4589809;19;20372;-23
2023/05/14 01:51:33;;;;;;;20.88;14.25;;;16.20;99.90;;;;;;4589874;19;20038;-24
2023/05/14 01:53:05;;;;;;;20.23;14.68;;;16.20;99.90;;;;;;4588595;19;20018;-23
2023/05/14 01:54:38;;;;;;;20.98;15.48;;;16.10;99.90;;;;;;4588985;19;20018;-28
2023/05/14 01:56:09;;;;;;;20.50;15.68;;;16.20;99.90;;;;;;4588049;19;20003;-25
2023/05/14 01:57:41;;;;;;;25.00;17.23;;;16.10;99.90;;;;;;4589334;19;20035;-23
2023/05/14 01:59:13;;;;;;;25.45;16.10;;;16.10;99.90;;;;;;4588764;19;20011;-25
2023/05/14 02:00:44;;;;;;;24.67;16.63;;;16.10;99.90;;;;;;4588890;19;20537;-23
2023/05/14 02:02:17;;;;;;;20.67;15.38;;;16.10;99.90;;;;;;4588982;19;20035;-23
2023/05/14 02:03:48;;;;;;;20.58;15.65;;;16.10;99.90;;;;;;4588555;19;20375;-25
2023/05/14 02:05:20;;;;;;;21.38;16.58;;;16.10;99.90;;;;;;4589500;19;20019;-23
2023/05/14 02:06:51;;;;;;;22.80;16.38;;;16.20;99.90;;;;;;4590098;19;20406;-27
2023/05/14 02:08:24;;;;;;;22.88;16.35;;;16.20;99.90;;;;;;4589847;19;20472;-23
2023/05/14 02:09:56;;;;;;;21.38;14.80;;;16.20;99.90;;;;;;4589619;19;20010;-25
2023/05/14 02:11:27;;;;;;;22.10;15.93;;;16.20;99.90;;;;;;4589673;19;20038;-22
2023/05/14 02:12:58;;;;;;;23.60;17.35;;;16.10;99.90;;;;;;4590004;19;20002;-27
2023/05/14 02:14:30;;;;;;;22.15;15.77;;;16.10;99.90;;;;;;4589377;19;20013;-26
2023/05/14 02:16:02;;;;;;;21.77;16.20;;;16.10;99.90;;;;;;4588622;19;20032;-27
2023/05/14 02:17:33;;;;;;;23.23;16.80;;;16.10;99.90;;;;;;4589784;19;20014;-23
2023/05/14 02:19:06;;;;;;;23.63;17.17;;;16.10;99.90;;;;;;4592066;19;20382;-23
2023/05/14 02:20:39;;;;;;;22.95;17.00;;;16.10;99.90;;;;;;4592919;19;20018;-30
2023/05/14 02:22:10;;;;;;;25.10;18.13;;;16.10;99.90;;;;;;4591652;19;20015;-23
2023/05/14 02:23:41;;;;;;;20.42;14.50;;;16.10;99.90;;;;;;4593199;19;20006;-26
2023/05/14 02:25:13;;;;;;;21.27;15.40;;;16.10;99.90;;;;;;4593639;19;20109;-26
2023/05/14 02:26:46;;;;;;;20.95;15.50;;;16.10;99.90;;;;;;4593750;19;20022;-23
2023/05/14 02:28:18;;;;;;;21.08;15.75;;;16.10;99.90;;;;;;4593924;19;20481;-26
2023/05/14 02:29:50;;;;;;;26.40;19.55;;;16.10;99.90;;;;;;4594009;19;20517;-22
2023/05/14 02:31:23;;;;;;;25.73;18.60;;;16.10;99.90;;;;;;4594527;19;20002;-27
2023/05/14 02:32:56;;;;;;;27.60;19.67;;;16.10;99.90;;;;;;4593698;19;20011;-23
2023/05/14 02:34:29;;;;;;;24.17;17.95;;;16.10;99.90;;;;;;4593953;19;20022;-27
2023/05/14 02:36:02;;;;;;;24.42;16.92;;;16.10;99.90;;;;;;4590396;19;20009;-22
2023/05/14 02:37:37;;;;;;;24.70;17.77;;;16.10;99.90;;;;;;4591987;19;19999;-23
2023/05/14 02:39:10;;;;;;;24.00;16.42;;;16.10;99.90;;;;;;4591189;19;20010;-24
2023/05/14 02:40:42;;;;;;;19.77;15.18;;;16.00;99.90;;;;;;4591458;19;20015;-23
2023/05/14 02:42:14;;;;;;;23.92;15.35;;;16.00;99.90;;;;;;4591858;19;20107;-24
2023/05/14 02:43:47;;;;;;;23.50;16.70;;;16.10;99.90;;;;;;4591513;19;20497;-23
2023/05/14 02:45:20;;;;;;;;;;;16.00;99.90;;;;;;4591986;19;20014;-28
2023/05/14 02:46:51;;;;;;;;;;;16.00;99.90;;;;;;4592586;19;19944;-23
2023/05/14 02:48:22;;;;;;;25.30;18.67;;;16.00;99.90;;;;;;4591719;19;19922;-24
2023/05/14 02:49:53;;;;;;;27.58;18.67;;;16.00;99.90;;;;;;4591188;19;20106;-24
2023/05/14 02:51:26;;;;;;;26.08;18.42;;;16.00;99.90;;;;;;4591290;19;20039;-24
2023/05/14 02:52:59;;;;;;;22.17;16.92;;;16.00;99.90;;;;;;4591718;19;20022;-24
2023/05/14 02:54:30;;;;;;;25.17;16.73;;;16.00;99.90;;;;;;4591543;19;20460;-23
2023/05/14 02:56:02;;;;;;;24.35;16.80;;;16.00;99.90;;;;;;4589907;19;20039;-23
2023/05/14 02:57:34;;;;;;;22.17;16.55;;;16.00;99.90;;;;;;4591442;19;20011;-25
2023/05/14 02:59:06;;;;;;;21.23;15.98;;;16.00;99.90;;;;;;4591154;19;20397;-22
2023/05/14 03:00:37;;;;;;;23.75;17.50;;;16.00;99.90;;;;;;4591522;19;20545;-24
2023/05/14 03:02:08;;;;;;;24.67;18.20;;;16.00;99.90;;;;;;4591057;19;20589;-22
2023/05/14 03:03:41;;;;;;;21.75;15.73;;;16.00;99.90;;;;;;4591256;19;20015;-24
2023/05/14 03:05:14;;;;;;;20.10;15.43;;;16.00;99.90;;;;;;4590996;19;20433;-24
2023/05/14 03:06:48;;;;;;;20.45;15.85;;;16.00;99.90;;;;;;4591214;19;20018;-27
2023/05/14 03:08:20;;;;;;;20.55;15.45;;;16.00;99.90;;;;;;4592065;19;20015;-30
2023/05/14 03:09:52;;;;;;;20.20;14.63;;;16.00;99.90;;;;;;4592991;19;20014;-23
2023/05/14 03:11:23;;;;;;;22.83;17.27;;;16.00;99.90;;;;;;4592581;19;20007;-23
2023/05/14 03:12:55;;;;;;;25.00;18.90;;;16.00;99.90;;;;;;4592801;19;20019;-24
2023/05/14 03:14:28;;;;;;;26.70;19.42;;;16.00;99.90;;;;;;4593014;19;20112;-28
2023/05/14 03:16:01;;;;;;;24.38;17.60;;;16.00;99.90;;;;;;4590978;19;20014;-23
2023/05/14 03:17:32;;;;;;;22.48;16.50;;;16.00;99.90;;;;;;4593116;19;20010;-28
2023/05/14 03:19:04;;;;;;;23.25;16.73;;;16.00;99.90;;;;;;4592883;19;20039;-28
2023/05/14 03:20:38;;;;;;;20.88;15.88;;;16.00;99.90;;;;;;4592023;19;20066;-22
2023/05/14 03:22:10;;;;;;;20.73;16.08;;;16.00;99.90;;;;;;4590665;19;20049;-24
2023/05/14 03:23:42;;;;;;;24.50;17.77;;;16.00;99.90;;;;;;4592230;19;20504;-27
2023/05/14 03:25:14;;;;;;;20.63;15.90;;;16.00;99.90;;;;;;4592375;19;20011;-24
2023/05/14 03:26:45;;;;;;;25.73;17.65;;;16.00;99.90;;;;;;4593038;19;20035;-26
2023/05/14 03:28:19;;;;;;;29.35;21.05;;;16.00;99.90;;;;;;4593275;19;20024;-26
2023/05/14 03:29:51;;;;;;;30.35;20.92;;;16.00;99.90;;;;;;4592750;19;20014;-23
2023/05/14 03:31:24;;;;;;;25.35;18.48;;;16.00;99.90;;;;;;4591178;19;20334;-24
2023/05/14 03:32:58;;;;;;;24.33;18.65;;;16.00;99.90;;;;;;4592979;19;20077;-23
2023/05/14 03:34:31;;;;;;;24.35;18.23;;;16.00;99.90;;;;;;4592419;19;20010;-28
2023/05/14 03:36:04;;;;;;;26.88;19.98;;;16.00;99.90;;;;;;4592103;19;20011;-25
2023/05/14 03:37:37;;;;;;;24.65;18.55;;;16.00;99.90;;;;;;4591427;19;20015;-23
2023/05/14 03:39:08;;;;;;;;;;;16.00;99.90;;;;;;4593279;19;20014;-28
2023/05/14 03:40:39;;;;;;;20.25;15.85;;;16.00;99.90;;;;;;4592601;19;19915;-22
2023/05/14 03:42:11;;;;;;;19.20;14.93;;;16.00;99.90;;;;;;4592041;19;20003;-23
2023/05/14 03:43:42;;;;;;;19.67;15.13;;;16.00;99.90;;;;;;4591874;19;20035;-25
2023/05/14 03:45:13;;;;;;;19.98;16.05;;;16.00;99.90;;;;;;4591550;19;20015;-28
2023/05/14 03:46:46;;;;;;;22.85;16.33;;;16.00;99.90;;;;;;4592381;19;20006;-24
2023/05/14 03:48:19;;;;;;;20.63;16.27;;;16.00;99.90;;;;;;4592164;19;20080;-25
2023/05/14 03:49:52;;;;;;;19.83;15.90;;;16.00;99.90;;;;;;4592285;19;20026;-28
2023/05/14 03:51:25;;;;;;;19.50;15.45;;;16.00;99.90;;;;;;4592626;19;20078;-22
2023/05/14 03:52:57;;;;;;;23.00;16.60;;;16.00;99.90;;;;;;4592470;19;20094;-23
2023/05/14 03:54:30;;;;;;;20.40;14.82;;;16.00;99.90;;;;;;4592118;19;20015;-27
2023/05/14 03:56:02;;;;;;;;;;;16.00;99.90;;;;;;4590919;19;20014;-26
2023/05/14 03:57:33;;;;;;;18.05;14.70;;;16.00;99.90;;;;;;4591771;19;20315;-23
2023/05/14 03:59:04;;;;;;;20.15;15.60;;;16.00;99.90;;;;;;4591205;19;20074;-24
2023/05/14 04:00:37;;;;;;;18.30;15.80;;;16.00;99.90;;;;;;4591579;19;20024;-22
2023/05/14 04:02:10;;;;;;;21.98;16.38;;;16.00;99.90;;;;;;4592188;19;20078;-23
2023/05/14 04:03:41;;;;;;;19.73;14.15;;;16.00;99.90;;;;;;4590834;19;20021;-25
2023/05/14 04:05:14;;;;;;;16.60;13.82;;;16.00;99.90;;;;;;4592309;19;20329;-28
2023/05/14 04:06:45;;;;;;;18.20;15.30;;;16.00;99.90;;;;;;4591907;19;20014;-23
2023/05/14 04:08:18;;;;;;;19.38;14.02;;;16.00;99.90;;;;;;4591798;19;20342;-26
2023/05/14 04:09:50;;;;;;;;;;;16.00;99.90;;;;;;4593250;19;20006;-23
2023/05/14 04:11:21;;;;;;;20.30;15.65;;;16.00;99.90;;;;;;4592549;19;20234;-27
2023/05/14 04:12:55;;;;;;;22.23;16.52;;;16.10;99.90;;;;;;4591823;19;20030;-25
2023/05/14 04:14:26;;;;;;;20.83;16.65;;;16.00;99.90;;;;;;4590856;19;20361;-23
2023/05/14 04:15:57;;;;;;;21.65;16.80;;;16.10;99.90;;;;;;4590463;19;20015;-26
2023/05/14 04:17:30;;;;;;;19.13;15.23;;;16.10;99.90;;;;;;4592296;19;20082;-23
2023/05/14 04:19:03;;;;;;;19.45;15.00;;;16.10;99.90;;;;;;4591826;19;20015;-23
2023/05/14 04:20:35;;;;;;;18.13;14.77;;;16.10;99.90;;;;;;4590550;19;20018;-23
2023/05/14 04:22:06;;;;;;;20.80;15.45;;;16.10;99.90;;;;;;4589938;19;20022;-22
2023/05/14 04:23:38;;;;;;;21.48;15.68;;;16.10;99.90;;;;;;4590894;19;20021;-24
2023/05/14 04:25:09;;;;;;;20.45;15.63;;;16.10;99.90;;;;;;4591531;19;20035;-24
2023/05/14 04:26:42;;;;;;;20.60;15.73;;;16.10;99.90;;;;;;4590647;19;20066;-24
2023/05/14 04:28:14;;;;;;;23.40;15.90;;;16.10;99.90;;;;;;4591536;19;20011;-24
2023/05/14 04:29:46;;;;;;;18.38;15.15;;;16.10;99.90;;;;;;4591468;19;20042;-23
2023/05/14 04:31:17;;;;;;;17.70;14.65;;;16.20;99.90;;;;;;4590020;19;20078;-25
2023/05/14 04:32:50;;;;;;;19.70;14.82;;;16.20;99.90;;;;;;4591110;19;20007;-22
2023/05/14 04:34:21;;;;;;;;;;;16.20;99.90;;;;;;4592586;19;20033;-29
2023/05/14 04:35:52;;;;;;;20.08;14.25;;;16.20;99.90;;;;;;4590700;19;19922;-23
2023/05/14 04:37:24;;;;;;;20.27;15.45;;;16.20;99.90;;;;;;4591797;19;20018;-24
2023/05/14 04:38:56;;;;;;;23.77;15.30;;;16.20;99.90;;;;;;4591506;19;20401;-25
2023/05/14 04:40:30;;;;;;;16.65;14.90;;;16.20;99.90;;;;;;4591848;19;20013;-24
2023/05/14 04:42:02;;;;;;;19.95;14.40;;;16.20;99.90;;;;;;4589363;19;20010;-24
2023/05/14 04:43:35;;;;;;;18.35;15.88;;;16.20;99.90;;;;;;4590842;19;20022;-23
2023/05/14 04:45:08;;;;;;;18.90;15.00;;;16.20;99.90;;;;;;4589860;19;20361;-22
2023/05/14 04:46:41;;;;;;;19.48;15.75;;;16.20;99.90;;;;;;4591201;19;20031;-27
2023/05/14 04:48:15;;;;;;;19.35;15.18;;;16.30;99.90;;;;;;4590914;19;20025;-29
2023/05/14 04:49:47;;;;;;;20.58;15.80;;;16.30;99.90;;;;;;4591133;19;20010;-28
2023/05/14 04:51:19;;;;;;;20.27;15.40;;;16.30;99.90;;;;;;4589861;19;20002;-23
2023/05/14 04:52:54;;;;;;;23.48;16.02;;;16.30;99.90;;;;;;4591345;19;20022;-27
2023/05/14 04:54:25;;;;;;;19.77;15.82;;;16.30;99.90;;;;;;4591038;19;20036;-22
2023/05/14 04:55:58;;;;;;;21.17;15.88;;;16.30;99.90;;;;;;4590317;19;20473;-27
2023/05/14 04:57:30;;;;;;;;;;;16.30;99.90;;;;;;4592388;19;20334;-23
2023/05/14 04:59:02;;;;;;;21.60;16.45;;;16.30;99.90;;;;;;4590969;19;19918;-25
2023/05/14 05:00:33;;;;;;;19.88;14.80;;;16.30;99.90;;;;;;4590938;19;20014;-26
2023/05/14 05:02:06;;;;;;;18.67;14.40;;;16.30;99.90;;;;;;4590827;19;20046;-25
2023/05/14 05:03:38;;;;;;;20.98;14.52;;;16.30;99.90;;;;;;4589668;19;20014;-23
2023/05/14 05:05:09;;;;;;;20.30;14.98;;;16.30;99.90;;;;;;4590197;19;20376;-26
2023/05/14 05:06:42;;;;;;;19.33;14.80;;;16.40;99.90;;;;;;4590924;19;20019;-23
2023/05/14 05:08:13;;;;;;;21.45;16.00;;;16.30;99.90;;;;;;4588215;19;20007;-26
2023/05/14 05:09:44;;;;;;;18.23;12.90;;;16.40;99.90;;;;;;4590420;19;20038;-23
2023/05/14 05:11:16;;;;;;;16.38;13.40;;;16.40;99.90;;;;;;4590353;19;20407;-25
2023/05/14 05:12:47;;;;;;;16.63;13.93;;;16.40;99.90;;;;;;4590963;19;20034;-24
2023/05/14 05:14:18;;;;;;;19.35;14.98;;;16.40;99.90;;;;;;4591052;19;20003;-23
2023/05/14 05:15:50;;;;;;;16.55;14.10;;;16.40;99.90;;;;;;4590455;19;20018;-23
2023/05/14 05:17:23;;;;;;;17.95;13.82;;;16.40;99.90;;;;;;4590401;19;20014;-23
2023/05/14 05:18:54;;;;;;;18.35;13.18;;;16.40;99.90;;;;;;4589654;19;20007;-23
2023/05/14 05:20:27;;;;;;;18.77;13.57;;;16.40;99.90;;;;;;4590157;19;20010;-27
2023/05/14 05:22:00;;;;;;;17.95;13.00;;;16.40;99.90;;;;;;4589696;19;20018;-25
2023/05/14 05:23:32;;;;;;;15.07;12.75;;;16.40;99.90;;;;;;4590534;19;20014;-25
2023/05/14 05:25:05;;;;;;;16.85;13.80;;;16.40;99.90;;;;;;4590681;19;20015;-24
2023/05/14 05:26:37;;;;;;;14.70;12.10;;;16.50;99.90;;;;;;4587768;19;20133;-24
2023/05/14 05:28:08;;;;;;;18.65;13.73;;;16.50;99.90;;;;;;4589530;19;20070;-28
2023/05/14 05:29:39;;;;;;;18.95;13.23;;;16.50;99.90;;;;;;4590477;19;20015;-25
2023/05/14 05:31:10;;;;;;;18.85;13.05;;;16.50;99.90;;;;;;4590107;19;20487;-25
2023/05/14 05:32:42;;;;;;;17.85;12.82;;;16.50;99.90;;;;;;4590936;19;20062;-24
2023/05/14 05:34:14;;;;;;;;;;;16.50;99.90;;;;;;4589963;19;20018;-25
2023/05/14 05:35:45;;;;;;;17.10;12.05;;;16.50;99.90;;;;;;4588682;19;19921;-23
2023/05/14 05:37:16;;;;;;;15.88;11.38;;;16.50;99.90;;;;;;4590166;19;20459;-23
2023/05/14 05:38:49;;;;;;;14.05;11.32;;;16.60;99.90;;;;;;4590614;19;20032;-29
2023/05/14 05:40:22;;;;;;;14.48;10.48;;;16.60;99.90;;;;;;4590174;19;20028;-23
2023/05/14 05:41:56;;;;;;;13.98;9.90;;;16.60;99.90;;;;;;4589374;19;20086;-23
2023/05/14 05:43:29;;;;;;;12.07;10.13;;;16.60;99.90;;;;;;4591324;19;20019;-24
2023/05/14 05:45:01;;;;;;;12.32;9.00;;;16.60;99.90;;;;;;4590011;19;20011;-25
2023/05/14 05:46:34;;;;;;;10.38;8.68;;;16.70;99.90;;;;;;4588906;19;20035;-23
2023/05/14 05:48:05;;;;;;;10.70;8.55;;;16.60;99.90;;;;;;4589591;19;20007;-24
2023/05/14 05:49:36;;;;;;;9.25;7.95;;;16.70;99.90;;;;;;4590276;19;20365;-27
2023/05/14 05:51:09;;;;;;;9.93;7.45;;;16.70;99.90;;;;;;4588741;19;20017;-25
2023/05/14 05:52:42;;;;;;;11.50;8.15;;;16.70;99.90;;;;;;4588868;19;20013;-23
2023/05/14 05:54:13;;;;;;;10.80;8.00;;;16.70;99.90;;;;;;4592707;19;20015;-24
2023/05/14 05:55:46;;;;;;;10.82;8.10;;;16.70;99.90;;;;;;4594114;19;19998;-25
2023/05/14 05:57:18;;;;;;;8.85;7.53;;;16.70;99.90;;;;;;4594517;19;20082;-29
2023/05/14 05:58:49;;;;;;;10.40;8.13;;;16.80;99.90;;;;;;4594648;19;20011;-23
2023/05/14 06:00:23;;;;;;;10.60;7.82;;;16.80;99.90;;;;;;4595078;19;20007;-23
2023/05/14 06:01:54;;;;;;;9.95;7.43;;;16.80;99.90;;;;;;4594402;19;20077;-26
2023/05/14 06:03:27;;;;;;;11.95;7.80;;;16.80;99.90;;;;;;4594156;19;20035;-24
2023/05/14 06:04:58;;;;;;;10.05;8.43;;;16.80;99.90;;;;;;4594407;19;20480;-23
2023/05/14 06:06:31;;;;;;;10.68;8.13;;;16.80;99.90;;;;;;4594606;19;20010;-24
2023/05/14 06:08:03;;;;;;;11.82;8.02;;;16.90;99.90;;;;;;4594402;19;20018;-23
2023/05/14 06:09:34;;;;;;;9.70;7.80;;;16.90;99.90;;;;;;4594339;19;20487;-22
2023/05/14 06:11:07;;;;;;;13.23;7.88;;;16.90;99.90;;;;;;4593020;19;20388;-25
2023/05/14 06:12:38;;;;;;;9.82;7.88;;;16.90;99.90;;;;;;4591941;19;20017;-22
2023/05/14 06:14:10;;;;;;;9.05;7.18;;;17.00;99.90;;;;;;4591684;19;20090;-23
2023/05/14 06:15:41;;;;;;;;;;;17.00;99.90;;;;;;4593604;19;20039;-25
2023/05/14 06:17:12;;;;;;;11.75;7.68;;;17.10;99.90;;;;;;4594577;19;19915;-26
2023/05/14 06:18:43;;;;;;;11.20;7.65;;;17.10;99.90;;;;;;4593671;19;20105;-24
2023/05/14 06:20:15;;;;;;;9.02;7.18;;;17.20;99.90;;;;;;4592595;19;20031;-23
2023/05/14 06:21:47;;;;;;;9.23;7.40;;;17.20;99.90;;;;;;4591787;19;20030;-26
2023/05/14 06:23:19;;;;;;;9.77;6.78;;;17.20;99.90;;;;;;4592715;19;20015;-23
2023/05/14 06:24:51;;;;;;;9.80;7.25;;;17.30;99.90;;;;;;4593683;19;20026;-29
2023/05/14 06:26:22;;;;;;;9.82;6.45;;;17.30;99.90;;;;;;4592815;19;20027;-28
2023/05/14 06:27:53;;;;;;;8.77;6.53;;;17.30;99.90;;;;;;4592611;19;20361;-26
2023/05/14 06:29:27;;;;;;;9.85;7.28;;;17.30;99.90;;;;;;4592480;19;20022;-23
2023/05/14 06:31:03;;;;;;;8.60;6.57;;;17.30;99.90;;;;;;4591049;19;20010;-23
2023/05/14 06:32:36;;;;;;;9.85;6.55;;;17.30;99.90;;;;;;4594252;19;20018;-24
2023/05/14 06:34:09;;;;;;;12.65;6.55;;;17.40;99.90;;;;;;4591758;19;20476;-24
2023/05/14 06:35:41;;;;;;;9.50;5.90;;;17.30;99.90;;;;;;4592173;19;20035;-27
2023/05/14 06:37:12;;;;;;;7.93;5.22;;;17.40;99.90;;;;;;4592818;19;20011;-23
2023/05/14 06:38:44;;;;;;;;;;;17.40;99.90;;;;;;4594661;19;20018;-24
2023/05/14 06:40:15;;;;;;;7.32;5.43;;;17.40;99.90;;;;;;4592931;19;19941;-23
2023/05/14 06:41:46;;;;;;;7.25;5.75;;;17.50;99.90;;;;;;4593337;19;20077;-24
2023/05/14 06:43:18;;;;;;;6.88;5.00;;;17.50;99.90;;;;;;4592818;19;20089;-23
2023/05/14 06:44:49;;;;;;;7.47;5.50;;;17.50;99.90;;;;;;4593028;19;20018;-28
2023/05/14 06:46:20;;;;;;;7.18;5.32;;;17.50;99.90;;;;;;4592646;19;20081;-26
2023/05/14 06:47:52;;;;;;;7.38;4.35;;;17.50;99.90;;;;;;4592765;19;20038;-27
2023/05/14 06:49:23;;;;;;;5.53;3.80;;;17.60;99.90;;;;;;4592840;19;20388;-25
2023/05/14 06:50:54;;;;;;;6.50;4.55;;;17.70;99.90;;;;;;4590214;19;20183;-24
2023/05/14 06:52:26;;;;;;;5.90;4.45;;;17.80;99.90;;;;;;4591906;19;20022;-26
2023/05/14 06:53:57;;;;;;;6.90;4.78;;;17.80;99.90;;;;;;4590647;19;20143;-24
2023/05/14 06:55:28;;;;;;;6.70;4.45;;;17.90;99.90;;;;;;4591477;19;20021;-23
2023/05/14 06:57:00;;;;;;;6.35;4.20;;;17.90;99.90;;;;;;4593052;19;20018;-25
2023/05/14 06:58:31;;;;;;;5.47;4.00;;;17.90;99.90;;;;;;4593325;19;20510;-24
2023/05/14 07:00:03;;;;;;;6.55;4.43;;;17.90;99.90;;;;;;4594000;19;20021;-26
2023/05/14 07:01:35;;;;;;;6.15;4.38;;;18.00;99.90;;;;;;4592289;19;20373;-31
2023/05/14 07:03:06;;;;;;;5.50;3.88;;;18.10;99.90;;;;;;4592526;19;20014;-27
2023/05/14 07:04:38;;;;;;;6.70;3.60;;;18.10;99.90;;;;;;4591603;19;20014;-23
2023/05/14 07:06:10;;;;;;;5.70;3.75;;;18.30;99.90;;;;;;4592923;19;20018;-24
2023/05/14 07:07:41;;;;;;;5.07;3.95;;;18.40;99.90;;;;;;4592738;19;20479;-24
2023/05/14 07:09:12;;;;;;;5.70;4.35;;;18.50;99.90;;;;;;4592784;19;20103;-24
2023/05/14 07:10:44;;;;;;;8.00;3.40;;;18.60;99.90;;;;;;4592966;19;20070;-24
2023/05/14 07:12:15;;;;;;;7.00;4.50;;;18.70;99.90;;;;;;4593802;19;20131;-27
2023/05/14 07:13:47;;;;;;;6.10;3.97;;;18.80;99.90;;;;;;4593409;19;20010;-24
2023/05/14 07:15:20;;;;;;;5.55;3.33;;;18.80;99.90;;;;;;4591992;19;20010;-30
2023/05/14 07:16:53;;;;;;;6.50;3.80;;;18.80;99.90;;;;;;4590917;19;20381;-24
2023/05/14 07:18:24;;;;;;;4.68;3.70;;;18.80;99.90;;;;;;4590080;19;20015;-25
2023/05/14 07:19:56;;;;;;;5.53;3.25;;;18.90;99.90;;;;;;4591434;19;20359;-22
2023/05/14 07:21:27;;;;;;;4.72;3.70;;;18.90;99.90;;;;;;4591532;19;20010;-24
2023/05/14 07:22:59;;;;;;;5.13;3.50;;;18.90;99.90;;;;;;4593868;19;20014;-25
2023/05/14 07:24:33;;;;;;;5.00;3.88;;;18.90;99.90;;;;;;4591900;19;20014;-24
2023/05/14 07:26:05;;;;;;;6.38;3.55;;;19.00;99.90;;;;;;4592811;19;20021;-24
2023/05/14 07:27:37;;;;;;;4.18;3.20;;;19.10;99.90;;;;;;4592974;19;20373;-26
2023/05/14 07:29:08;;;;;;;;;;;19.10;99.90;;;;;;4594388;19;20406;-26
2023/05/14 07:30:40;;;;;;;4.78;3.35;;;19.30;99.90;;;;;;4592863;19;20237;-24
2023/05/14 07:32:11;;;;;;;5.32;3.17;;;19.40;99.90;;;;;;4592683;19;20022;-24
2023/05/14 07:33:43;;;;;;;6.10;3.92;;;19.60;99.90;;;;;;4593775;19;20015;-23
2023/05/14 07:35:14;;;;;;;10.20;3.45;;;19.80;99.90;;;;;;4593119;19;20086;-24
2023/05/14 07:36:46;;;;;;;5.82;3.70;;;20.00;99.90;;;;;;4591102;19;20006;-28
2023/05/14 07:38:19;;;;;;;9.05;3.60;;;20.10;99.90;;;;;;4595575;19;20015;-23
2023/05/14 07:39:51;;;;;;;6.55;4.30;;;20.30;99.90;;;;;;4591435;19;20100;-24
2023/05/14 07:41:24;;;;;;;6.25;3.30;;;20.40;99.90;;;;;;4592034;19;20018;-27
2023/05/14 07:42:59;;;;;;;5.20;3.55;;;20.30;99.80;;;;;;4592202;19;20476;-25
2023/05/14 07:44:31;;;;;;;5.55;2.95;;;20.20;99.90;;;;;;4592322;19;20018;-26
2023/05/14 07:46:02;;;;;;;4.82;2.95;;;20.40;99.90;;;;;;4592634;19;20026;-28
2023/05/14 07:47:33;;;;;;;5.85;3.40;;;20.50;99.90;;;;;;4593255;19;20544;-24
2023/05/14 07:49:04;;;;;;;4.25;3.00;;;20.50;99.90;;;;;;4593124;19;20037;-25
2023/05/14 07:50:37;;;;;;;5.85;4.55;;;20.50;99.90;;;;;;4593856;19;20011;-23
2023/05/14 07:52:08;;;;;;;;;;;17.90;99.90;;;;;;4593629;19;20011;-26
2023/05/14 07:53:40;;;;;;;7.25;3.95;;;16.50;99.90;;;;;;4592379;19;19914;-23
2023/05/14 07:55:11;;;;;;;6.07;4.00;;;16.00;99.90;;;;;;4592526;19;20024;-24